Lourdes, Canada
Current Conditions -  °F | °C
As of 4:00 AM on Sunday 26 Oct 2014 (Local Time) from CYJT Reporting Station
Scattered Clouds Scattered Clouds  
Wind Chill: 37°   Ceiling: Unl
Heat Index: 43°   Visibility: 15mi
Dew Point: 39°   Wind: 10mph
Humidity: 87%   Direction: 70°ENE
Pressure: 29.53"   Gusts: NA
Location:  48.65°N, 58.98°W
Report Text: CYJT 260600Z 07009KT 15SM SCT026 06/04 A2953 RMK SC3 SLP999
Loading
Personal Weather Stations






























Interactive Weather Map
Tropical Storm Tracking
New forecast layout! Learn more

10-Day Weather Forecast

Advertisements
Track Severe Weather on mobile